createdAt,value
2019-02-20T00:00:41.680Z,82.41
2019-02-20T00:06:00.316Z,82.05
2019-02-20T00:11:18.870Z,81.93
2019-02-20T00:16:37.519Z,82.03
2019-02-20T00:21:56.149Z,82.30
2019-02-20T00:27:14.714Z,82.78
2019-02-20T00:32:33.270Z,82.59
2019-02-20T00:37:51.815Z,82.86
2019-02-20T00:43:10.642Z,82.26
2019-02-20T00:48:39.504Z,82.84
2019-02-20T00:53:59.631Z,83.01
2019-02-20T00:59:18.261Z,83.45
2019-02-20T01:04:37.202Z,83.33
2019-02-20T01:09:55.705Z,82.92
2019-02-20T01:15:14.270Z,83.00
2019-02-20T01:20:32.894Z,83.07
2019-02-20T01:25:51.362Z,83.10
2019-02-20T01:31:09.975Z,83.31
2019-02-20T01:36:28.517Z,83.51
2019-02-20T01:41:46.980Z,83.41
2019-02-20T01:47:05.612Z,83.66
2019-02-20T01:52:24.149Z,83.93
2019-02-20T01:57:42.765Z,84.45
2019-02-20T02:03:01.399Z,84.73
2019-02-20T02:08:20.015Z,84.31
2019-02-20T02:13:38.521Z,84.54
2019-02-20T02:18:57.141Z,84.38
2019-02-20T02:24:15.756Z,84.66
2019-02-20T02:29:34.400Z,84.74
2019-02-20T02:34:53.016Z,84.72
2019-02-20T02:40:11.710Z,84.54
2019-02-20T02:45:30.265Z,84.36
2019-02-20T02:50:49.647Z,84.28
2019-02-20T02:56:08.281Z,84.30
2019-02-20T03:01:26.904Z,84.48
2019-02-20T03:06:45.528Z,84.02
2019-02-20T03:12:04.140Z,83.95
2019-02-20T03:17:22.753Z,83.86
2019-02-20T03:22:41.245Z,83.78
2019-02-20T03:27:59.882Z,83.45
2019-02-20T03:33:18.424Z,83.39
2019-02-20T03:38:37.454Z,83.36
2019-02-20T03:43:56.044Z,83.57
2019-02-20T03:49:14.585Z,83.03
2019-02-20T03:54:33.281Z,83.33
2019-02-20T03:59:51.899Z,83.20
2019-02-20T04:05:10.796Z,83.09
2019-02-20T04:10:29.411Z,82.68
2019-02-20T04:15:47.884Z,82.77
2019-02-20T04:21:06.482Z,82.32
2019-02-20T04:26:24.948Z,82.64
2019-02-20T04:31:43.649Z,82.04
2019-02-20T04:37:02.274Z,82.07
2019-02-20T04:42:21.162Z,82.16
2019-02-20T04:47:39.784Z,81.81
2019-02-20T04:52:58.483Z,81.62
2019-02-20T04:58:19.284Z,81.69
2019-02-20T05:03:37.818Z,81.47
2019-02-20T05:08:56.447Z,81.50
2019-02-20T05:14:15.055Z,81.44
2019-02-20T05:19:33.749Z,81.67
2019-02-20T05:24:52.294Z,81.84
2019-02-20T05:30:10.939Z,81.82
2019-02-20T05:35:29.750Z,82.17
2019-02-20T05:40:48.365Z,82.52
2019-02-20T05:46:08.058Z,83.00
2019-02-20T05:51:26.758Z,83.33
2019-02-20T05:56:45.249Z,83.64
2019-02-20T06:02:03.863Z,83.57
2019-02-20T06:07:22.479Z,83.74
2019-02-20T06:12:41.095Z,83.40
2019-02-20T06:17:59.646Z,83.83
2019-02-20T06:23:18.251Z,84.02
2019-02-20T06:28:36.792Z,83.83
2019-02-20T06:33:55.372Z,83.60
2019-02-20T06:39:14.707Z,83.67
2019-02-20T06:44:33.182Z,83.80
2019-02-20T06:49:52.796Z,83.92
2019-02-20T06:55:12.550Z,83.79
2019-02-20T07:00:31.089Z,83.76
2019-02-20T07:05:50.818Z,83.76
2019-02-20T07:11:24.327Z,83.65
2019-02-20T07:17:06.822Z,83.46
2019-02-20T07:22:37.459Z,83.08
2019-02-20T07:27:58.993Z,82.84
2019-02-20T07:33:17.596Z,82.51
2019-02-20T07:38:36.070Z,82.21
2019-02-20T07:43:54.615Z,82.03
2019-02-20T07:49:13.185Z,81.60
2019-02-20T07:54:31.731Z,81.63
2019-02-20T07:59:50.276Z,81.55
2019-02-20T08:05:08.891Z,80.90
2019-02-20T08:10:27.522Z,79.67
2019-02-20T08:15:46.182Z,78.53
2019-02-20T08:21:04.804Z,78.03
2019-02-20T08:26:23.623Z,79.20
2019-02-20T08:31:42.210Z,77.83
2019-02-20T08:37:00.765Z,77.25
2019-02-20T08:42:19.394Z,73.45
2019-02-20T08:47:37.959Z,73.93
2019-02-20T08:52:56.444Z,72.99
2019-02-20T08:58:14.991Z,75.01
2019-02-20T09:03:33.570Z,75.43
2019-02-20T09:08:52.057Z,74.86
2019-02-20T09:14:10.689Z,74.65
2019-02-20T09:19:29.253Z,72.96
2019-02-20T09:24:47.972Z,71.29
2019-02-20T09:30:09.508Z,71.42
2019-02-20T09:35:27.985Z,71.88
2019-02-20T09:40:46.611Z,70.28
2019-02-20T09:46:05.221Z,69.37
2019-02-20T09:51:23.840Z,69.74
2019-02-20T09:56:42.408Z,68.80
2019-02-20T10:02:01.164Z,69.12
2019-02-20T10:07:19.788Z,67.44
2019-02-20T10:12:38.696Z,66.33
2019-02-20T10:17:57.260Z,65.38
2019-02-20T10:23:15.828Z,67.31
2019-02-20T10:28:34.415Z,67.11
2019-02-20T10:33:53.216Z,66.65
2019-02-20T10:39:11.769Z,65.64
2019-02-20T10:44:30.348Z,63.74
2019-02-20T10:49:48.835Z,63.33
2019-02-20T10:55:08.955Z,64.26
2019-02-20T11:00:30.655Z,64.32
2019-02-20T11:05:49.215Z,62.77
2019-02-20T11:11:07.770Z,63.14
2019-02-20T11:16:26.246Z,64.51
2019-02-20T11:21:44.870Z,64.61
2019-02-20T11:27:03.435Z,64.77
2019-02-20T11:32:22.068Z,65.18
2019-02-20T11:37:40.680Z,64.93
2019-02-20T11:42:59.220Z,62.90
2019-02-20T11:48:17.734Z,62.76
2019-02-20T11:53:37.378Z,63.68
2019-02-20T11:58:56.125Z,63.16
2019-02-20T12:04:14.747Z,63.75
2019-02-20T12:09:33.364Z,62.57
2019-02-20T12:14:51.988Z,63.23
2019-02-20T12:20:10.723Z,63.28
2019-02-20T12:25:29.265Z,63.28
2019-02-20T12:30:47.829Z,63.54
2019-02-20T12:36:06.446Z,61.01
2019-02-20T12:41:25.063Z,61.49
2019-02-20T12:46:43.690Z,58.78
2019-02-20T12:52:02.320Z,59.58
2019-02-20T12:57:20.947Z,59.80
2019-02-20T13:02:39.568Z,61.01
2019-02-20T13:07:58.178Z,59.08
2019-02-20T13:13:16.725Z,59.30
2019-02-20T13:18:35.352Z,59.02
2019-02-20T13:23:53.898Z,60.13
2019-02-20T13:29:12.457Z,59.48
2019-02-20T13:34:31.103Z,59.34
2019-02-20T13:39:49.587Z,59.84
2019-02-20T13:45:10.079Z,57.61
2019-02-20T13:50:28.706Z,57.26
2019-02-20T13:55:47.333Z,58.04
2019-02-20T14:01:05.870Z,57.16
2019-02-20T14:06:24.366Z,57.30
2019-02-20T14:11:43.924Z,57.19
2019-02-20T14:17:02.516Z,56.70
2019-02-20T14:22:21.056Z,57.70
2019-02-20T14:27:39.686Z,58.67
2019-02-20T14:32:58.260Z,59.00
2019-02-20T14:38:16.751Z,58.21
2019-02-20T14:43:35.300Z,58.41
2019-02-20T14:48:54.132Z,59.08
2019-02-20T14:54:12.758Z,59.34
2019-02-20T14:59:31.522Z,58.87
2019-02-20T15:04:50.166Z,57.62
2019-02-20T15:10:09.991Z,58.69
2019-02-20T15:15:28.651Z,58.78
2019-02-20T15:20:48.844Z,59.62
2019-02-20T15:26:07.467Z,59.61
2019-02-20T15:31:33.545Z,60.61
2019-02-20T15:36:46.452Z,60.42
2019-02-20T15:42:05.084Z,60.18
2019-02-20T15:47:23.729Z,60.27
2019-02-20T15:52:42.286Z,60.96
2019-02-20T15:58:01.109Z,59.82
2019-02-20T16:03:19.755Z,61.21
2019-02-20T16:08:38.386Z,61.14
2019-02-20T16:13:57.006Z,62.79
2019-02-20T16:19:15.582Z,63.45
2019-02-20T16:24:34.524Z,63.54
2019-02-20T16:29:53.162Z,63.78
2019-02-20T16:35:12.210Z,64.29
2019-02-20T16:40:30.860Z,64.44
2019-02-20T16:45:49.487Z,65.08
2019-02-20T16:51:20.310Z,66.22
2019-02-20T16:56:38.842Z,66.36
2019-02-20T17:01:57.463Z,66.59
2019-02-20T17:07:18.138Z,67.90
2019-02-20T17:12:37.465Z,68.67
2019-02-20T17:17:56.243Z,68.93
2019-02-20T17:23:14.865Z,69.94
2019-02-20T17:28:35.142Z,70.34
2019-02-20T17:33:53.693Z,71.22
2019-02-20T17:39:12.346Z,72.01
2019-02-20T17:44:31.113Z,72.07
2019-02-20T17:49:49.672Z,72.66
2019-02-20T17:55:09.867Z,73.40
2019-02-20T18:00:33.717Z,73.29
2019-02-20T18:05:52.565Z,73.83
2019-02-20T18:11:11.072Z,74.29
2019-02-20T18:16:29.630Z,75.09
2019-02-20T18:21:48.200Z,75.60
2019-02-20T18:27:06.820Z,76.00
2019-02-20T18:32:25.719Z,76.90
2019-02-20T18:37:44.347Z,77.36
2019-02-20T18:43:02.982Z,78.12
2019-02-20T18:48:21.603Z,78.69
2019-02-20T18:53:40.159Z,79.27
2019-02-20T18:58:58.777Z,79.90
2019-02-20T19:04:17.909Z,80.50
2019-02-20T19:09:36.534Z,80.62
2019-02-20T19:15:13.227Z,81.50
2019-02-20T19:20:50.977Z,83.10
2019-02-20T19:26:12.507Z,84.11
2019-02-20T19:31:42.768Z,84.71
2019-02-20T19:37:04.289Z,84.70
2019-02-20T19:42:28.550Z,84.14
2019-02-20T19:48:09.320Z,84.43
2019-02-20T19:53:53.787Z,84.39
2019-02-20T19:59:30.573Z,84.66
2019-02-20T20:05:01.253Z,85.20
2019-02-20T20:10:51.622Z,85.15
2019-02-20T20:16:42.117Z,85.38
2019-02-20T20:22:18.236Z,86.64
2019-02-20T20:27:52.056Z,87.06
2019-02-20T20:33:46.986Z,88.29
2019-02-20T20:39:15.260Z,87.70
2019-02-20T20:44:55.854Z,88.99
2019-02-20T20:50:17.433Z,88.54
2019-02-20T20:56:01.649Z,88.62
2019-02-20T21:01:43.942Z,89.87
2019-02-20T21:07:17.379Z,89.46
2019-02-20T21:13:10.617Z,91.24
2019-02-20T21:18:56.163Z,91.08
2019-02-20T21:24:26.531Z,91.26
2019-02-20T21:30:07.314Z,90.63
2019-02-20T21:35:37.431Z,90.86
2019-02-20T21:41:08.025Z,90.55
2019-02-20T21:46:48.827Z,88.53
2019-02-20T21:52:25.033Z,87.20
2019-02-20T21:57:48.349Z,85.97
2019-02-20T22:03:18.717Z,85.22
2019-02-20T22:08:50.204Z,84.64
2019-02-20T22:14:31.341Z,83.93
2019-02-20T22:20:10.449Z,83.27
2019-02-20T22:25:47.318Z,83.33
2019-02-20T22:31:43.959Z,82.83
2019-02-20T22:37:08.073Z,83.15
2019-02-20T22:42:38.667Z,82.87
2019-02-20T22:48:03.135Z,82.96
2019-02-20T22:54:01.274Z,82.21
2019-02-20T22:59:31.636Z,81.93
2019-02-20T23:04:58.941Z,82.40
2019-02-20T23:10:26.692Z,82.61
2019-02-20T23:15:45.249Z,82.79
2019-02-20T23:21:05.331Z,82.60
2019-02-20T23:26:23.963Z,82.69
2019-02-20T23:31:42.904Z,82.42
2019-02-20T23:37:01.457Z,82.41
2019-02-20T23:42:20.101Z,82.89
2019-02-20T23:47:38.875Z,83.28
2019-02-20T23:52:57.505Z,83.25
2019-02-20T23:58:16.016Z,83.69
